Time;durP1;ratioP1;P1;durP2;ratioP2;P2;SDS_P1;SDS_P2;PMS_P1;PMS_P2;Temp;Humidity;BMP_temperature;BMP_pressure;BME280_temperature;BME280_humidity;BME280_pressure;Samples;Min_cycle;Max_cycle;Signal;HPM_P1;HPM_P2
2020/12/11 00:00:22;;;;;;;19.97;10.77;;;;;;;3.96;100.00;96936.47;5093832;28;20208;-70
2020/12/11 00:02:49;;;;;;;16.73;10.60;;;;;;;4.08;100.00;96931.16;5094158;28;20552;-71
2020/12/11 00:05:18;;;;;;;16.47;11.03;;;;;;;3.89;100.00;96936.16;5094178;28;20303;-70
2020/12/11 00:07:45;;;;;;;18.60;11.30;;;;;;;3.95;100.00;96937.59;5094246;28;20287;-70
2020/12/11 00:10:13;;;;;;;18.47;11.27;;;;;;;3.97;100.00;96927.16;5094049;28;20299;-72
2020/12/11 00:12:39;;;;;;;19.03;10.23;;;;;;;4.38;100.00;96928.50;5092325;28;20207;-71
2020/12/11 00:15:07;;;;;;;15.47;10.23;;;;;;;4.25;100.00;96924.03;5094289;28;20320;-71
2020/12/11 00:17:34;;;;;;;15.23;9.57;;;;;;;4.00;100.00;96918.31;5095918;28;20236;-70
2020/12/11 00:20:02;;;;;;;14.37;9.17;;;;;;;4.24;100.00;96925.16;5102731;28;20226;-70
2020/12/11 00:22:28;;;;;;;14.43;9.70;;;;;;;4.20;100.00;96929.69;5102242;28;20232;-70
2020/12/11 00:24:54;;;;;;;16.13;9.97;;;;;;;3.87;100.00;96916.59;5093873;28;20762;-71
2020/12/11 00:27:20;;;;;;;15.47;9.60;;;;;;;3.98;100.00;96912.38;5090309;28;20208;-70
2020/12/11 00:29:49;;;;;;;16.77;9.70;;;;;;;4.14;100.00;96916.19;5092927;28;20250;-70
2020/12/11 00:32:15;;;;;;;13.67;9.30;;;;;;;4.04;100.00;96916.56;5090925;28;20239;-70
2020/12/11 00:34:41;;;;;;;15.17;9.90;;;;;;;4.11;100.00;96910.59;5090374;28;20220;-70
2020/12/11 00:37:07;;;;;;;15.43;9.80;;;;;;;3.94;100.00;96910.66;5091913;28;20696;-70
2020/12/11 00:39:36;;;;;;;19.20;10.83;;;;;;;3.98;100.00;96912.38;5091118;28;20291;-69
2020/12/11 00:42:02;;;;;;;15.30;9.80;;;;;;;4.09;100.00;96907.38;5091843;28;20676;-69
2020/12/11 00:44:28;;;;;;;16.67;10.60;;;;;;;3.87;100.00;96910.31;5091625;28;20231;-70
2020/12/11 00:47:03;;;;;;;16.10;10.70;;;;;;;3.69;100.00;96914.19;5090370;28;20204;-69
2020/12/11 00:49:30;;;;;;;14.73;10.10;;;;;;;3.78;100.00;96907.63;5091933;28;20268;-69
2020/12/11 00:51:56;;;;;;;14.63;9.60;;;;;;;3.90;100.00;96910.50;5091816;28;20291;-69
2020/12/11 00:54:23;;;;;;;15.73;10.67;;;;;;;3.77;100.00;96906.03;5091333;28;20293;-70
2020/12/11 00:56:49;;;;;;;15.43;10.40;;;;;;;3.92;100.00;96910.94;5091395;28;20298;-69
2020/12/11 01:33:37;;;;;;;18.30;10.90;;;;;;;4.23;100.00;96874.44;5108093;27;20503;-70
2020/12/11 01:36:03;;;;;;;15.27;10.50;;;;;;;3.95;100.00;96874.84;5107359;28;20692;-70
2020/12/11 01:38:29;;;;;;;18.47;11.00;;;;;;;3.77;100.00;96878.75;5107471;28;20298;-69
2020/12/11 01:40:56;;;;;;;16.40;10.73;;;;;;;3.65;100.00;96875.88;5108827;28;20207;-69
2020/12/11 01:43:22;;;;;;;14.47;10.43;;;;;;;3.47;100.00;96877.00;5108533;28;20291;-70
2020/12/11 01:45:48;;;;;;;15.43;10.57;;;;;;;3.61;100.00;96869.44;5109054;28;20665;-70
2020/12/11 01:48:16;;;;;;;17.30;11.53;;;;;;;3.58;100.00;96878.28;5114052;28;20290;-71
2020/12/11 01:50:42;;;;;;;17.57;11.97;;;;;;;3.57;100.00;96868.50;5115441;28;20703;-70
2020/12/11 01:53:09;;;;;;;17.43;11.20;;;;;;;3.56;100.00;96866.91;5108942;28;20219;-70
2020/12/11 01:55:39;;;;;;;17.67;11.77;;;;;;;4.17;100.00;96868.34;5108966;28;20235;-70
2020/12/11 01:58:19;;;;;;;17.90;11.97;;;;;;;4.17;100.00;96867.53;5109090;28;20236;-70
2020/12/11 02:00:46;;;;;;;15.90;10.93;;;;;;;3.83;100.00;96855.59;5108507;28;20287;-71
2020/12/11 02:03:14;;;;;;;16.77;11.23;;;;;;;3.75;100.00;96859.16;5108787;28;20249;-70
2020/12/11 02:05:40;;;;;;;19.70;11.30;;;;;;;4.14;100.00;96849.91;5108692;28;20249;-68
2020/12/11 02:08:06;;;;;;;17.70;11.27;;;;;;;3.97;100.00;96852.69;5108501;28;20285;-68
2020/12/11 02:10:32;;;;;;;18.10;11.00;;;;;;;3.93;100.00;96852.53;5111321;28;20207;-68
2020/12/11 02:13:07;;;;;;;16.90;11.00;;;;;;;3.76;100.00;96852.56;5109380;28;20263;-70
2020/12/11 02:15:34;;;;;;;17.00;11.33;;;;;;;3.78;100.00;96853.06;5110575;28;20817;-71
2020/12/11 02:18:01;;;;;;;19.20;11.27;;;;;;;3.93;100.00;96855.25;5109395;28;20298;-70
2020/12/11 02:20:30;;;;;;;17.73;11.10;;;;;;;3.71;100.00;96850.03;5110899;28;20242;-70
2020/12/11 02:22:57;;;;;;;19.53;11.93;;;;;;;4.01;100.00;96851.69;5108242;28;20232;-70
2020/12/11 02:25:25;;;;;;;17.57;11.40;;;;;;;3.90;100.00;96845.00;5107839;28;20255;-70
2020/12/11 02:27:51;;;;;;;20.33;11.63;;;;;;;4.27;100.00;96842.63;5107379;28;20211;-69
2020/12/11 02:30:18;;;;;;;19.30;11.93;;;;;;;4.46;100.00;96835.59;5107017;28;20208;-69
2020/12/11 02:32:44;;;;;;;16.57;10.73;;;;;;;4.13;100.00;96842.81;5109636;28;20246;-69
2020/12/11 02:35:16;;;;;;;17.73;11.50;;;;;;;4.03;100.00;96833.06;5117667;28;20223;-69
2020/12/11 02:37:42;;;;;;;19.07;11.70;;;;;;;4.14;100.00;96839.75;5109296;28;20287;-71
2020/12/11 02:40:08;;;;;;;19.13;11.10;;;;;;;4.26;100.00;96841.81;5107796;28;20250;-70
2020/12/11 02:42:38;;;;;;;17.47;11.10;;;;;;;4.03;100.00;96843.97;5107884;28;20902;-71
2020/12/11 02:45:05;;;;;;;17.30;11.30;;;;;;;4.20;100.00;96831.41;5093124;28;20315;-69
2020/12/11 02:47:32;;;;;;;17.50;11.40;;;;;;;4.17;100.00;96829.31;5093553;28;20942;-69
2020/12/11 02:50:03;;;;;;;18.03;11.80;;;;;;;4.13;100.00;96826.44;5093019;28;20286;-69
2020/12/11 02:52:29;;;;;;;17.87;11.47;;;;;;;4.05;100.00;96824.56;5093854;28;20220;-69
2020/12/11 02:54:55;;;;;;;19.50;11.30;;;;;;;4.13;100.00;96826.44;5093497;28;20743;-70
2020/12/11 02:57:21;;;;;;;18.57;10.97;;;;;;;3.89;100.00;96826.22;5093055;28;20243;-68
2020/12/11 02:59:47;;;;;;;16.70;11.17;;;;;;;3.57;100.00;96821.34;5093652;28;20205;-71
2020/12/11 03:02:16;;;;;;;17.57;11.00;;;;;;;4.07;100.00;96817.63;5092620;28;20691;-70
2020/12/11 03:04:48;;;;;;;18.77;11.43;;;;;;;3.91;100.00;96810.31;5093236;28;20748;-70
2020/12/11 03:07:14;;;;;;;18.03;11.33;;;;;;;3.78;100.00;96803.94;5093029;28;20804;-71
2020/12/11 03:09:40;;;;;;;20.07;11.20;;;;;;;3.78;100.00;96809.41;5093059;28;20272;-70
2020/12/11 03:12:06;;;;;;;19.77;11.23;;;;;;;3.87;100.00;96802.00;5092483;28;20273;-70
2020/12/11 03:14:32;;;;;;;17.23;10.67;;;;;;;3.62;100.00;96805.59;5106021;28;20256;-71
2020/12/11 03:16:59;;;;;;;18.00;11.60;;;;;;;3.55;100.00;96799.84;5108712;28;20227;-69
2020/12/11 03:19:25;;;;;;;18.90;11.73;;;;;;;3.72;100.00;96788.88;5095190;28;20205;-70
2020/12/11 03:21:51;;;;;;;17.07;11.53;;;;;;;3.66;100.00;96790.19;5098933;28;20651;-69
2020/12/11 03:24:20;;;;;;;19.50;11.63;;;;;;;3.66;100.00;96794.84;5093258;28;20250;-70
2020/12/11 03:26:49;;;;;;;18.67;11.17;;;;;;;3.63;100.00;96795.50;5091868;28;20243;-69
2020/12/11 03:29:15;;;;;;;19.13;10.57;;;;;;;3.42;100.00;96798.13;5091410;28;20673;-70
2020/12/11 03:31:41;;;;;;;19.53;11.87;;;;;;;3.52;100.00;96791.53;5093221;28;20282;-70
2020/12/11 03:34:07;;;;;;;21.47;12.07;;;;;;;3.54;100.00;96794.72;5091552;28;20705;-71
2020/12/11 03:36:33;;;;;;;18.13;11.10;;;;;;;3.45;100.00;96789.28;5092691;28;20208;-71
2020/12/11 03:38:59;;;;;;;19.63;11.83;;;;;;;3.41;100.00;96793.00;5092396;28;20211;-71
2020/12/11 03:41:25;;;;;;;18.07;11.40;;;;;;;3.49;100.00;96792.16;5091524;28;20244;-72
2020/12/11 03:43:51;;;;;;;19.43;11.97;;;;;;;3.32;100.00;96778.59;5091342;28;20224;-71
2020/12/11 03:46:21;;;;;;;17.23;11.53;;;;;;;3.30;100.00;96787.09;5092671;28;20244;-70
2020/12/11 03:48:50;;;;;;;18.93;12.53;;;;;;;3.42;100.00;96776.31;5092403;28;20205;-70
2020/12/11 03:51:19;;;;;;;16.57;11.17;;;;;;;3.36;100.00;96776.81;5092714;28;20724;-69
2020/12/11 03:53:49;;;;;;;21.07;12.70;;;;;;;3.48;100.00;96772.28;5090714;28;20697;-69
2020/12/11 03:56:16;;;;;;;19.93;12.13;;;;;;;3.34;100.00;96770.88;5091430;28;20209;-70
2020/12/11 03:58:45;;;;;;;19.63;12.27;;;;;;;3.45;100.00;96770.19;5091767;28;20571;-68
2020/12/11 04:01:14;;;;;;;19.33;12.03;;;;;;;3.51;100.00;96771.63;5092813;28;20208;-69
2020/12/11 04:03:40;;;;;;;22.10;11.43;;;;;;;3.45;100.00;96759.28;5092041;28;20231;-69
2020/12/11 04:06:08;;;;;;;20.27;12.03;;;;;;;3.41;100.00;96755.63;5092269;28;20290;-71
2020/12/11 04:08:35;;;;;;;20.20;13.20;;;;;;;3.10;100.00;96755.06;5091969;28;20233;-71
2020/12/11 04:11:07;;;;;;;19.13;11.93;;;;;;;3.36;100.00;96763.97;5091220;28;20328;-71
2020/12/11 04:13:33;;;;;;;20.47;12.70;;;;;;;3.26;100.00;96756.16;5091530;28;20231;-70
2020/12/11 04:16:00;;;;;;;21.03;12.63;;;;;;;3.52;100.00;96743.22;5092036;28;20248;-70
2020/12/11 04:18:27;;;;;;;17.27;11.70;;;;;;;3.38;100.00;96747.28;5091629;28;20783;-70
2020/12/11 04:20:53;;;;;;;20.13;12.87;;;;;;;3.36;100.00;96744.09;5092085;28;20320;-70
2020/12/11 04:23:19;;;;;;;19.80;12.67;;;;;;;3.28;100.00;96743.00;5091789;28;20208;-69
2020/12/11 04:25:46;;;;;;;18.67;12.37;;;;;;;3.47;100.00;96732.50;5090929;28;20638;-70
2020/12/11 04:28:12;;;;;;;19.57;12.27;;;;;;;3.36;100.00;96742.16;5091337;28;20677;-69
2020/12/11 04:30:38;;;;;;;20.40;13.17;;;;;;;3.34;100.00;96744.41;5092066;28;20581;-69
2020/12/11 04:33:04;;;;;;;19.43;12.63;;;;;;;3.39;100.00;96738.81;5091388;28;20272;-69
2020/12/11 04:35:30;;;;;;;19.20;12.10;;;;;;;3.27;100.00;96738.66;5091961;28;20264;-69
2020/12/11 04:37:57;;;;;;;17.80;12.23;;;;;;;3.40;100.00;96743.13;5091307;28;20216;-69
2020/12/11 04:40:23;;;;;;;21.23;13.30;;;;;;;3.23;100.00;96748.59;5092043;28;20239;-69
2020/12/11 04:42:50;;;;;;;21.93;13.33;;;;;;;3.09;100.00;96748.00;5091626;28;20261;-69
2020/12/11 04:45:17;;;;;;;18.27;12.50;;;;;;;3.16;100.00;96745.56;5092110;28;20224;-68
2020/12/11 04:47:47;;;;;;;19.57;12.70;;;;;;;3.30;100.00;96738.03;5092701;28;20291;-70
2020/12/11 04:50:16;;;;;;;19.47;13.17;;;;;;;3.36;100.00;96738.66;5096934;28;20604;-70
2020/12/11 04:52:44;;;;;;;20.27;13.37;;;;;;;3.19;100.00;96731.31;5100624;28;20216;-69
2020/12/11 04:55:13;;;;;;;19.47;12.93;;;;;;;3.44;100.00;96733.16;5093063;28;20254;-69
2020/12/11 04:57:54;;;;;;;20.70;13.57;;;;;;;3.26;100.00;96731.63;5093228;28;20213;-69
2020/12/11 05:00:22;;;;;;;18.57;12.83;;;;;;;3.16;100.00;96725.72;5091696;28;20247;-72
2020/12/11 05:02:49;;;;;;;19.30;12.53;;;;;;;3.22;100.00;96725.22;5090323;28;20254;-71
2020/12/11 05:05:17;;;;;;;19.60;13.43;;;;;;;3.60;100.00;96714.31;5091405;28;20311;-71
2020/12/11 05:07:44;;;;;;;19.70;13.67;;;;;;;3.55;100.00;96717.25;5090554;28;20265;-70
2020/12/11 05:10:11;;;;;;;20.93;13.63;;;;;;;3.45;100.00;96712.94;5091344;28;20208;-70
2020/12/11 05:12:37;;;;;;;20.53;14.27;;;;;;;3.41;100.00;96712.00;5091414;28;20221;-71
2020/12/11 05:15:07;;;;;;;19.60;14.07;;;;;;;3.30;100.00;96704.50;5090699;28;20315;-70
2020/12/11 05:17:38;;;;;;;19.33;14.03;;;;;;;3.60;100.00;96708.88;5090640;28;20231;-69
2020/12/11 05:20:06;;;;;;;20.10;14.00;;;;;;;3.28;100.00;96706.75;5091193;28;20239;-70
2020/12/11 05:22:35;;;;;;;22.17;15.30;;;;;;;3.19;100.00;96714.97;5090916;28;20200;-69
2020/12/11 05:25:02;;;;;;;22.60;15.30;;;;;;;3.14;100.00;96708.88;5090508;28;20666;-70
2020/12/11 05:27:37;;;;;;;20.47;14.37;;;;;;;3.25;100.00;96704.69;5088868;28;20295;-70
2020/12/11 05:30:18;;;;;;;20.43;14.47;;;;;;;3.08;100.00;96705.53;5091230;28;20272;-72
2020/12/11 05:32:46;;;;;;;18.93;13.57;;;;;;;3.29;100.00;96692.78;5090991;28;20224;-71
2020/12/11 05:35:15;;;;;;;20.63;14.10;;;;;;;3.28;100.00;96685.75;5092370;28;20232;-70
2020/12/11 05:37:50;;;;;;;21.53;15.03;;;;;;;3.42;100.00;96674.63;5098836;28;20215;-69
2020/12/11 05:40:17;;;;;;;22.43;15.33;;;;;;;3.35;100.00;96680.59;5095758;28;20310;-69
2020/12/11 05:42:43;;;;;;;20.47;14.80;;;;;;;3.46;100.00;96675.56;5091693;28;20300;-70
2020/12/11 05:45:18;;;;;;;23.00;15.97;;;;;;;3.34;100.00;96686.38;5091414;28;20260;-70
2020/12/11 05:47:44;;;;;;;21.43;14.90;;;;;;;3.37;100.00;96672.09;5090541;28;20222;-69
2020/12/11 05:50:19;;;;;;;20.83;14.83;;;;;;;3.49;100.00;96658.56;5092263;28;20208;-69
2020/12/11 05:52:47;;;;;;;22.97;15.23;;;;;;;3.20;100.00;96664.78;5092642;28;20282;-70
2020/12/11 05:55:17;;;;;;;22.17;15.63;;;;;;;3.43;100.00;96659.88;5091843;28;20258;-72
2020/12/11 05:57:43;;;;;;;24.37;16.97;;;;;;;3.12;100.00;96662.88;5090373;28;20700;-69
2020/12/11 06:00:09;;;;;;;24.40;16.70;;;;;;;3.16;100.00;96669.28;5091903;28;20416;-69
2020/12/11 06:02:38;;;;;;;23.07;16.43;;;;;;;3.49;100.00;96664.81;5093497;28;20283;-69
2020/12/11 06:05:11;;;;;;;25.23;16.67;;;;;;;3.29;100.00;96660.09;5090321;28;20293;-69
2020/12/11 06:07:50;;;;;;;23.63;16.03;;;;;;;3.56;100.00;96662.38;5089724;28;20291;-70
2020/12/11 06:10:21;;;;;;;26.73;16.83;;;;;;;3.43;100.00;96660.66;5089716;28;20193;-70
2020/12/11 06:12:48;;;;;;;22.13;16.60;;;;;;;3.04;100.00;96659.06;5089866;28;20772;-69
2020/12/11 06:15:17;;;;;;;23.47;16.37;;;;;;;3.00;100.00;96647.22;5090254;28;20224;-69
2020/12/11 06:18:15;;;;;;;25.83;16.33;;;;;;;2.92;100.00;96645.31;5088504;28;20298;-69
2020/12/11 06:20:47;;;;;;;25.27;17.17;;;;;;;2.93;100.00;96657.00;5097327;28;20209;-70
2020/12/11 06:23:21;;;;;;;25.57;17.60;;;;;;;3.08;100.00;96642.88;5100406;28;20189;-69
2020/12/11 06:26:05;;;;;;;24.67;17.37;;;;;;;3.17;100.00;96646.38;5096947;28;20200;-70
2020/12/11 06:28:51;;;;;;;24.33;17.50;;;;;;;3.23;100.00;96650.47;5093597;28;20205;-71
2020/12/11 06:31:20;;;;;;;25.57;16.93;;;;;;;2.98;100.00;96651.38;5094009;28;20311;-70
2020/12/11 06:34:21;;;;;;;25.33;17.93;;;;;;;3.03;100.00;96651.19;5093502;28;20316;-70
2020/12/11 06:36:51;;;;;;;26.50;16.90;;;;;;;2.88;100.00;96651.75;5093596;28;20208;-70
2020/12/11 06:39:46;;;;;;;24.70;17.43;;;;;;;2.84;100.00;96654.31;5093683;28;20307;-71
2020/12/11 06:42:35;;;;;;;25.43;16.97;;;;;;;2.91;100.00;96649.16;5094040;28;20288;-69
2020/12/11 06:45:24;;;;;;;26.00;18.07;;;;;;;2.84;100.00;96653.50;5092328;28;20247;-69
2020/12/11 06:47:53;;;;;;;26.87;17.60;;;;;;;2.61;100.00;96647.44;5092971;28;20207;-70
2020/12/11 06:50:21;;;;;;;25.87;17.70;;;;;;;2.72;100.00;96658.84;5093622;28;20303;-72
2020/12/11 06:52:47;;;;;;;25.43;16.97;;;;;;;2.70;100.00;96670.03;5093054;28;20256;-70
2020/12/11 06:55:13;;;;;;;32.00;18.53;;;;;;;2.64;100.00;96665.06;5093557;28;20312;-69
2020/12/11 06:57:41;;;;;;;27.93;18.53;;;;;;;2.63;100.00;96656.09;5092342;28;20693;-69
2020/12/11 07:00:30;;;;;;;25.90;18.03;;;;;;;2.47;100.00;96643.31;5093372;28;20218;-69
2020/12/11 07:03:19;;;;;;;27.67;18.03;;;;;;;2.52;100.00;96645.88;5093393;28;20208;-69
2020/12/11 07:05:55;;;;;;;24.77;16.87;;;;;;;2.56;100.00;96649.53;5093143;28;20208;-70
2020/12/11 07:08:21;;;;;;;26.63;16.77;;;;;;;2.63;100.00;96658.81;5087685;28;20283;-71
2020/12/11 07:10:47;;;;;;;25.30;16.80;;;;;;;2.60;100.00;96653.22;5093098;28;20745;-70
2020/12/11 07:13:14;;;;;;;26.70;17.27;;;;;;;2.62;100.00;96661.88;5092172;28;20225;-71
2020/12/11 07:15:40;;;;;;;28.87;18.53;;;;;;;2.84;100.00;96657.03;5091760;28;20362;-70
2020/12/11 07:18:14;;;;;;;26.20;17.67;;;;;;;2.71;100.00;96654.50;5092724;28;20288;-70
2020/12/11 07:20:52;;;;;;;27.53;18.07;;;;;;;2.75;100.00;96658.19;5093163;28;20205;-69
2020/12/11 07:23:21;;;;;;;29.30;18.47;;;;;;;2.62;100.00;96653.69;5092553;28;20287;-70
2020/12/11 07:25:48;;;;;;;30.07;19.90;;;;;;;2.66;100.00;96641.84;5091977;28;20208;-70
2020/12/11 07:28:18;;;;;;;30.90;18.90;;;;;;;2.43;100.00;96647.78;5092493;28;20208;-71
2020/12/11 07:30:45;;;;;;;31.43;19.03;;;;;;;2.54;100.00;96643.63;5093346;28;20211;-71
2020/12/11 07:33:11;;;;;;;30.37;19.33;;;;;;;2.84;100.00;96637.16;5092474;28;20224;-70
2020/12/11 07:35:50;;;;;;;31.13;19.53;;;;;;;2.74;100.00;96642.94;5093235;28;20225;-71
2020/12/11 07:38:18;;;;;;;34.00;19.57;;;;;;;2.36;100.00;96636.59;5092399;28;20668;-70
2020/12/11 07:40:52;;;;;;;31.80;19.30;;;;;;;2.46;100.00;96617.22;5092975;28;20295;-70
2020/12/11 07:43:19;;;;;;;30.67;19.03;;;;;;;2.52;100.00;96616.72;5093469;28;20250;-69
2020/12/11 07:45:46;;;;;;;33.73;20.17;;;;;;;2.53;100.00;96617.53;5113764;28;20204;-70
2020/12/11 07:48:16;;;;;;;32.30;19.23;;;;;;;2.49;100.00;96630.19;5113135;28;20204;-70
2020/12/11 07:50:46;;;;;;;31.57;20.37;;;;;;;2.40;100.00;96623.94;5093896;28;20216;-69
2020/12/11 07:53:13;;;;;;;31.23;19.53;;;;;;;2.50;100.00;96621.69;5093478;28;20308;-71
2020/12/11 07:55:43;;;;;;;32.03;19.73;;;;;;;2.76;100.00;96624.34;5096851;28;20259;-72
2020/12/11 07:58:09;;;;;;;29.23;19.43;;;;;;;2.57;100.00;96621.22;5093763;28;20734;-72
2020/12/11 08:00:37;;;;;;;30.17;18.83;;;;;;;2.65;100.00;96612.22;5094024;28;20291;-72
2020/12/11 08:03:08;;;;;;;30.60;19.10;;;;;;;2.77;100.00;96610.41;5093085;28;20196;-70
2020/12/11 08:05:36;;;;;;;33.63;19.77;;;;;;;2.73;100.00;96614.13;5092121;28;20252;-70
2020/12/11 08:08:03;;;;;;;26.90;18.17;;;;;;;2.91;100.00;96602.06;5091752;28;20248;-69
2020/12/11 08:10:43;;;;;;;33.00;18.87;;;;;;;2.70;100.00;96599.22;5091993;28;20236;-69
2020/12/11 08:13:12;;;;;;;30.43;20.03;;;;;;;3.14;100.00;96602.63;5089648;28;20638;-70
2020/12/11 08:15:39;;;;;;;27.23;18.23;;;;;;;2.95;100.00;96606.53;5083478;28;20709;-70
2020/12/11 08:18:07;;;;;;;29.80;19.77;;;;;;;2.96;100.00;96597.22;5091319;28;20891;-69
2020/12/11 08:20:47;;;;;;;31.20;19.90;;;;;;;2.96;100.00;96591.78;5092533;28;20212;-71
2020/12/11 08:23:24;;;;;;;31.37;20.37;;;;;;;2.84;100.00;96582.69;5092178;28;20200;-69
2020/12/11 08:26:05;;;;;;;30.83;19.77;;;;;;;2.85;100.00;96585.09;5090572;28;20269;-71
2020/12/11 08:28:31;;;;;;;31.33;19.60;;;;;;;2.87;100.00;96582.03;5090681;28;20895;-71
2020/12/11 08:31:32;;;;;;;31.13;19.80;;;;;;;2.94;100.00;96591.28;5092316;28;20328;-71
2020/12/11 08:34:13;;;;;;;34.03;19.73;;;;;;;2.95;100.00;96586.66;5090628;28;20229;-71
2020/12/11 08:36:42;;;;;;;32.43;20.17;;;;;;;3.12;100.00;96583.84;5090696;28;20212;-71
2020/12/11 08:39:17;;;;;;;30.20;20.27;;;;;;;3.38;100.00;96579.06;5091577;28;20205;-71
2020/12/11 08:42:43;;;;;;;30.53;19.90;;;;;;;3.00;100.00;96573.66;5104851;28;20235;-71
2020/12/11 08:52:53;;;;;;;35.13;20.33;;;;;;;3.16;100.00;96568.44;5089980;28;20714;-68
2020/12/11 08:55:19;;;;;;;32.33;20.13;;;;;;;3.03;100.00;96570.28;5090244;28;20667;-68
2020/12/11 08:57:49;;;;;;;30.30;20.00;;;;;;;3.07;100.00;96559.50;5090192;28;20291;-69
2020/12/11 09:00:19;;;;;;;30.83;20.53;;;;;;;3.25;100.00;96552.84;5091475;28;20211;-68
2020/12/11 09:02:45;;;;;;;31.23;21.30;;;;;;;3.10;100.00;96553.44;5091201;28;20287;-68
2020/12/11 09:05:12;;;;;;;34.40;21.30;;;;;;;2.97;100.00;96543.53;5091272;28;20228;-67
2020/12/11 09:07:38;;;;;;;34.93;20.97;;;;;;;3.14;100.00;96548.13;5090311;28;20295;-70
2020/12/11 09:10:08;;;;;;;40.67;21.37;;;;;;;3.38;100.00;96548.28;5090935;28;20581;-70
2020/12/11 09:12:35;;;;;;;31.93;20.30;;;;;;;3.01;100.00;96549.94;5090688;28;20312;-68
2020/12/11 09:15:04;;;;;;;30.90;20.33;;;;;;;3.13;100.00;96541.84;5090328;28;20256;-69
2020/12/11 09:17:32;;;;;;;30.83;20.60;;;;;;;2.98;100.00;96536.97;5090857;28;20204;-69
2020/12/11 09:19:58;;;;;;;29.53;19.70;;;;;;;2.96;100.00;96536.47;5073513;28;20212;-69
2020/12/11 09:22:24;;;;;;;29.83;19.53;;;;;;;3.04;100.00;96532.94;5092924;28;20662;-69
2020/12/11 09:24:50;;;;;;;30.63;20.03;;;;;;;3.05;100.00;96529.88;5097694;28;20235;-68
2020/12/11 09:27:19;;;;;;;30.30;19.63;;;;;;;3.16;100.00;96546.63;5073016;28;20208;-70
2020/12/11 09:29:47;;;;;;;30.33;19.50;;;;;;;3.04;100.00;96538.38;5090891;28;20201;-70
2020/12/11 09:33:05;;;;;;;31.10;19.27;;;;;;;3.01;100.00;96534.38;5090882;28;20226;-70
2020/12/11 09:35:03;;;;;;;30.33;19.80;;;;;;;3.15;100.00;96533.34;5089434;28;20315;-71
2020/12/11 09:37:29;;;;;;;32.43;19.73;;;;;;;3.13;100.00;96524.72;5090135;28;20243;-69
2020/12/11 09:39:57;;;;;;;28.53;19.17;;;;;;;3.06;100.00;96526.03;5089547;28;20573;-70
2020/12/11 09:42:48;;;;;;;28.27;19.17;;;;;;;3.09;100.00;96524.56;5089530;28;20210;-70
2020/12/11 09:50:40;;;;;;;29.47;18.27;;;;;;;3.07;100.00;96500.38;5090546;28;20236;-70
2020/12/11 09:54:10;;;;;;;28.40;18.77;;;;;;;3.11;100.00;96500.50;5090159;28;20775;-71
2020/12/11 09:56:04;;;;;;;28.70;19.57;;;;;;;3.10;100.00;96498.94;5093516;28;20200;-70
2020/12/11 09:58:33;;;;;;;31.73;19.60;;;;;;;3.32;100.00;96487.69;5093686;28;20265;-71
2020/12/11 10:01:00;;;;;;;29.63;19.07;;;;;;;2.97;100.00;96483.63;5094704;28;20223;-71
2020/12/11 10:03:32;;;;;;;26.93;18.20;;;;;;;3.15;100.00;96476.94;5094628;28;20204;-71
2020/12/11 10:05:58;;;;;;;27.57;18.23;;;;;;;3.34;100.00;96460.91;5094930;28;20292;-72
2020/12/11 10:08:26;;;;;;;27.33;18.00;;;;;;;3.25;100.00;96468.34;5094179;28;20665;-71
2020/12/11 10:10:53;;;;;;;29.80;18.43;;;;;;;3.17;100.00;96471.97;5094624;28;20319;-71
2020/12/11 10:13:20;;;;;;;27.83;18.47;;;;;;;3.15;100.00;96463.31;5094455;28;20234;-71
2020/12/11 10:15:46;;;;;;;26.70;18.07;;;;;;;3.18;100.00;96465.38;5094744;28;20244;-69
2020/12/11 10:18:14;;;;;;;31.17;18.90;;;;;;;3.30;100.00;96451.03;5094174;28;20238;-72
2020/12/11 10:20:41;;;;;;;27.30;17.47;;;;;;;3.04;100.00;96452.00;5093204;28;20235;-71
2020/12/11 10:23:07;;;;;;;26.50;17.03;;;;;;;3.06;100.00;96438.84;5094282;28;20254;-70
2020/12/11 10:25:36;;;;;;;27.37;17.37;;;;;;;3.20;100.00;96443.22;5093390;28;20330;-70
2020/12/11 10:28:05;;;;;;;26.30;17.93;;;;;;;3.20;100.00;96435.84;5093827;28;20234;-70
2020/12/11 10:30:32;;;;;;;33.03;18.63;;;;;;;3.34;100.00;96422.75;5094037;28;20207;-69
2020/12/11 10:32:58;;;;;;;27.37;17.20;;;;;;;3.14;100.00;96423.53;5093796;28;20224;-69
2020/12/11 10:35:24;;;;;;;25.67;16.47;;;;;;;3.26;100.00;96429.09;5093166;28;20224;-70
2020/12/11 10:37:50;;;;;;;25.20;16.87;;;;;;;3.12;100.00;96414.13;5093381;28;20215;-72
2020/12/11 10:40:18;;;;;;;27.80;16.97;;;;;;;3.15;100.00;96416.19;5093851;28;20544;-70
2020/12/11 10:42:47;;;;;;;25.83;16.97;;;;;;;3.04;100.00;96423.97;5094130;28;20205;-70
2020/12/11 10:45:14;;;;;;;27.47;17.60;;;;;;;3.03;100.00;96422.34;5094855;28;20224;-70
2020/12/11 10:47:42;;;;;;;30.33;17.53;;;;;;;3.18;100.00;96413.59;5094504;28;20672;-70
2020/12/11 10:50:08;;;;;;;29.10;17.97;;;;;;;3.03;100.00;96408.72;5093946;28;20725;-70
2020/12/11 10:52:34;;;;;;;26.17;17.07;;;;;;;3.01;100.00;96403.59;5093756;28;21147;-70
2020/12/11 10:55:00;;;;;;;31.87;17.87;;;;;;;3.12;100.00;96393.09;5094315;28;20254;-71
2020/12/11 10:57:26;;;;;;;28.27;17.67;;;;;;;3.10;100.00;96401.63;5100415;28;20204;-70
2020/12/11 10:59:52;;;;;;;27.00;16.17;;;;;;;2.96;100.00;96401.09;5099960;28;20200;-71
2020/12/11 11:02:18;;;;;;;27.63;17.53;;;;;;;3.06;100.00;96400.72;5092949;28;20568;-70
2020/12/11 11:04:44;;;;;;;30.60;16.87;;;;;;;2.92;100.00;96399.34;5091892;28;20224;-70
2020/12/11 11:07:17;;;;;;;30.97;16.90;;;;;;;2.83;100.00;96391.25;5092680;28;20212;-69
2020/12/11 11:10:04;;;;;;;32.67;18.03;;;;;;;3.14;100.00;96390.84;5086976;28;20690;-69
2020/12/11 11:12:37;;;;;;;28.93;17.10;;;;;;;3.05;100.00;96392.84;5091683;28;20319;-70
2020/12/11 11:20:48;;;;;;;30.17;16.87;;;;;;;3.09;100.00;96415.56;5093094;28;20265;-70
2020/12/11 11:28:18;;;;;;;27.10;16.33;;;;;;;2.92;100.00;96404.78;5092241;28;20204;-69
2020/12/11 11:30:44;;;;;;;27.33;16.17;;;;;;;2.97;100.00;96391.00;5091994;28;20203;-70
2020/12/11 11:33:10;;;;;;;28.50;16.70;;;;;;;3.35;100.00;96394.38;5091872;28;20233;-70
2020/12/11 11:35:36;;;;;;;29.53;16.07;;;;;;;3.00;100.00;96393.06;5091195;28;20231;-69
2020/12/11 11:38:06;;;;;;;36.23;16.87;;;;;;;3.03;100.00;96384.19;5090657;28;20669;-69
2020/12/11 11:40:32;;;;;;;26.53;16.50;;;;;;;3.20;100.00;96381.34;5092767;28;20299;-70
2020/12/11 11:42:58;;;;;;;28.10;16.90;;;;;;;3.14;100.00;96379.94;5111382;28;20218;-68
2020/12/11 11:45:26;;;;;;;28.83;16.63;;;;;;;2.98;100.00;96381.69;5103547;28;20224;-69
2020/12/11 11:48:02;;;;;;;29.23;17.53;;;;;;;3.15;100.00;96384.28;5090352;28;20836;-71
2020/12/11 11:50:38;;;;;;;28.50;17.30;;;;;;;3.14;100.00;96374.50;5092193;28;20212;-70
2020/12/11 11:53:10;;;;;;;26.60;17.00;;;;;;;3.17;100.00;96390.22;5092103;28;20224;-69
2020/12/11 11:55:37;;;;;;;28.17;17.80;;;;;;;3.21;100.00;96384.88;5092087;28;20731;-69
2020/12/11 11:58:03;;;;;;;26.27;16.03;;;;;;;3.44;100.00;96372.50;5091164;28;20608;-70
2020/12/11 12:00:32;;;;;;;25.93;15.83;;;;;;;3.28;100.00;96375.03;5092446;28;20645;-69
2020/12/11 12:02:58;;;;;;;30.97;18.80;;;;;;;3.33;100.00;96360.41;5091710;28;20294;-69
2020/12/11 12:05:24;;;;;;;26.20;16.80;;;;;;;3.15;100.00;96370.66;5093300;28;20573;-72
2020/12/11 12:07:50;;;;;;;30.40;17.03;;;;;;;3.27;100.00;96365.25;5086781;28;20212;-69
2020/12/11 12:10:17;;;;;;;28.40;16.73;;;;;;;3.08;100.00;96364.97;5083687;28;20901;-69
2020/12/11 12:12:43;;;;;;;33.00;18.80;;;;;;;3.24;100.00;96340.59;5087350;28;20241;-68
2020/12/11 12:15:15;;;;;;;32.27;18.03;;;;;;;3.36;100.00;96344.19;5087328;28;20710;-69
2020/12/11 12:17:58;;;;;;;37.73;18.87;;;;;;;3.23;100.00;96345.25;5086142;28;20700;-69
2020/12/11 12:30:45;;;;;;;30.67;18.00;;;;;;;3.41;100.00;96333.09;5102229;28;20263;-71
2020/12/11 12:43:57;;;;;;;33.57;19.57;;;;;;;3.44;100.00;96326.94;5090031;28;20256;-71
2020/12/11 12:46:23;;;;;;;32.73;20.37;;;;;;;3.22;100.00;96324.59;5067997;28;20224;-69